Terminal Aerodrome Forecast
Issued by NWS Goodland, KS

Home | Current Version | Previous Version | Text Only | Print | Product List | Glossary On
Versions: 1 2 3 4 5 6 7 8 9 10 11 12 13 14
000
FTUS43 KGLD 221127
TAFGLD
TAF
KGLD 221127Z 2212/2312 17012G17KT P6SM BKN110
     FM222300 17018G25KT P6SM VCTS BKN050CB
     FM230300 16015KT P6SM SCT100
     FM231000 16009KT 5SM BR OVC010=

USA.gov is the U.S. government's official web portal to all federal, state and local government web resources and services.